sensor_id;sensor_type;location;lat;lon;timestamp;pressure;altitude;pressure_sealevel;temperature;humidity
22688;BME280;11511;51.514;7.080;2022-11-12T00:01:55;102604.97;;;1.36;100.00
22688;BME280;11511;51.514;7.080;2022-11-12T00:04:40;102608.19;;;1.29;100.00
22688;BME280;11511;51.514;7.080;2022-11-12T00:07:24;102612.56;;;1.30;100.00
22688;BME280;11511;51.514;7.080;2022-11-12T00:10:09;102616.75;;;1.26;100.00
22688;BME280;11511;51.514;7.080;2022-11-12T00:12:53;102611.00;;;1.10;100.00
22688;BME280;11511;51.514;7.080;2022-11-12T00:15:38;102611.25;;;0.92;100.00
22688;BME280;11511;51.514;7.080;2022-11-12T00:18:22;102610.59;;;0.97;100.00
22688;BME280;11511;51.514;7.080;2022-11-12T00:21:07;102620.09;;;0.97;100.00
22688;BME280;11511;51.514;7.080;2022-11-12T00:23:51;102622.50;;;0.92;100.00
22688;BME280;11511;51.514;7.080;2022-11-12T00:26:35;102619.38;;;1.01;100.00
22688;BME280;11511;51.514;7.080;2022-11-12T00:29:19;102622.25;;;1.10;100.00
22688;BME280;11511;51.514;7.080;2022-11-12T00:32:07;102618.59;;;1.04;100.00
22688;BME280;11511;51.514;7.080;2022-11-12T00:34:52;102625.28;;;0.97;100.00
22688;BME280;11511;51.514;7.080;2022-11-12T00:37:36;102618.75;;;0.84;100.00
22688;BME280;11511;51.514;7.080;2022-11-12T00:40:21;102622.28;;;0.86;100.00
22688;BME280;11511;51.514;7.080;2022-11-12T00:43:06;102623.06;;;0.84;100.00
22688;BME280;11511;51.514;7.080;2022-11-12T00:45:50;102628.53;;;0.67;100.00
22688;BME280;11511;51.514;7.080;2022-11-12T00:48:34;102634.06;;;0.77;100.00
22688;BME280;11511;51.514;7.080;2022-11-12T00:51:19;102630.44;;;0.72;100.00
22688;BME280;11511;51.514;7.080;2022-11-12T00:54:04;102630.53;;;0.75;100.00
22688;BME280;11511;51.514;7.080;2022-11-12T00:56:48;102642.84;;;0.80;100.00
22688;BME280;11511;51.514;7.080;2022-11-12T00:59:32;102638.22;;;0.72;100.00
22688;BME280;11511;51.514;7.080;2022-11-12T01:02:17;102634.72;;;0.71;100.00
22688;BME280;11511;51.514;7.080;2022-11-12T01:05:03;102638.16;;;0.70;100.00
22688;BME280;11511;51.514;7.080;2022-11-12T01:07:47;102641.03;;;0.78;100.00
22688;BME280;11511;51.514;7.080;2022-11-12T01:10:34;102629.47;;;0.93;100.00
22688;BME280;11511;51.514;7.080;2022-11-12T01:13:18;102635.97;;;0.82;100.00
22688;BME280;11511;51.514;7.080;2022-11-12T01:16:15;102641.03;;;0.78;100.00
22688;BME280;11511;51.514;7.080;2022-11-12T01:19:00;102639.91;;;0.71;100.00
22688;BME280;11511;51.514;7.080;2022-11-12T01:21:45;102634.44;;;0.63;100.00
22688;BME280;11511;51.514;7.080;2022-11-12T01:24:29;102644.81;;;0.63;100.00
22688;BME280;11511;51.514;7.080;2022-11-12T01:27:13;102641.22;;;0.60;100.00
22688;BME280;11511;51.514;7.080;2022-11-12T01:29:57;102643.66;;;0.55;100.00
22688;BME280;11511;51.514;7.080;2022-11-12T01:32:42;102637.31;;;0.47;100.00
22688;BME280;11511;51.514;7.080;2022-11-12T01:35:26;102643.94;;;0.63;100.00
22688;BME280;11511;51.514;7.080;2022-11-12T01:38:10;102646.22;;;0.54;100.00
22688;BME280;11511;51.514;7.080;2022-11-12T01:40:54;102652.38;;;0.57;100.00
22688;BME280;11511;51.514;7.080;2022-11-12T01:43:38;102652.09;;;0.50;100.00
22688;BME280;11511;51.514;7.080;2022-11-12T01:46:27;102648.56;;;0.48;100.00
22688;BME280;11511;51.514;7.080;2022-11-12T01:49:16;102643.16;;;0.42;100.00
22688;BME280;11511;51.514;7.080;2022-11-12T01:52:10;102637.25;;;0.46;100.00
22688;BME280;11511;51.514;7.080;2022-11-12T01:55:00;102634.91;;;0.52;100.00
22688;BME280;11511;51.514;7.080;2022-11-12T01:57:53;102639.03;;;0.47;100.00
22688;BME280;11511;51.514;7.080;2022-11-12T02:00:39;102635.88;;;0.55;100.00
22688;BME280;11511;51.514;7.080;2022-11-12T02:03:24;102642.94;;;0.59;100.00
22688;BME280;11511;51.514;7.080;2022-11-12T02:06:11;102638.56;;;0.58;100.00
22688;BME280;11511;51.514;7.080;2022-11-12T02:08:58;102633.84;;;0.47;100.00
22688;BME280;11511;51.514;7.080;2022-11-12T02:11:42;102630.53;;;0.51;100.00
22688;BME280;11511;51.514;7.080;2022-11-12T02:14:27;102616.19;;;0.60;100.00
22688;BME280;11511;51.514;7.080;2022-11-12T02:17:12;102614.22;;;0.53;100.00
22688;BME280;11511;51.514;7.080;2022-11-12T02:19:59;102612.97;;;0.44;100.00
22688;BME280;11511;51.514;7.080;2022-11-12T02:22:44;102620.47;;;0.36;100.00
22688;BME280;11511;51.514;7.080;2022-11-12T02:25:29;102617.88;;;0.36;100.00
22688;BME280;11511;51.514;7.080;2022-11-12T02:28:13;102619.41;;;0.31;100.00
22688;BME280;11511;51.514;7.080;2022-11-12T02:30:58;102617.88;;;0.36;100.00
22688;BME280;11511;51.514;7.080;2022-11-12T02:33:43;102617.22;;;0.42;100.00
22688;BME280;11511;51.514;7.080;2022-11-12T02:36:27;102609.94;;;0.31;100.00
22688;BME280;11511;51.514;7.080;2022-11-12T02:39:12;102614.03;;;0.25;100.00
22688;BME280;11511;51.514;7.080;2022-11-12T02:41:57;102611.69;;;0.32;100.00
22688;BME280;11511;51.514;7.080;2022-11-12T02:44:41;102618.38;;;0.26;100.00
22688;BME280;11511;51.514;7.080;2022-11-12T02:47:25;102609.38;;;0.16;100.00
22688;BME280;11511;51.514;7.080;2022-11-12T02:50:10;102616.69;;;0.26;100.00
22688;BME280;11511;51.514;7.080;2022-11-12T02:52:55;102619.25;;;0.26;100.00
22688;BME280;11511;51.514;7.080;2022-11-12T02:55:41;102616.63;;;0.25;100.00
22688;BME280;11511;51.514;7.080;2022-11-12T02:58:26;102623.56;;;0.26;100.00
22688;BME280;11511;51.514;7.080;2022-11-12T03:01:11;102627.56;;;0.18;100.00
22688;BME280;11511;51.514;7.080;2022-11-12T03:03:55;102622.31;;;0.16;100.00
22688;BME280;11511;51.514;7.080;2022-11-12T03:06:39;102626.03;;;0.23;100.00
22688;BME280;11511;51.514;7.080;2022-11-12T03:09:23;102625.22;;;0.24;100.00
22688;BME280;11511;51.514;7.080;2022-11-12T03:12:08;102619.84;;;0.19;100.00
22688;BME280;11511;51.514;7.080;2022-11-12T03:14:52;102618.19;;;0.21;100.00
22688;BME280;11511;51.514;7.080;2022-11-12T03:17:36;102621.84;;;0.26;100.00
22688;BME280;11511;51.514;7.080;2022-11-12T03:20:20;102617.25;;;0.19;100.00
22688;BME280;11511;51.514;7.080;2022-11-12T03:23:07;102614.78;;;0.22;100.00
22688;BME280;11511;51.514;7.080;2022-11-12T03:25:52;102614.78;;;0.22;100.00
22688;BME280;11511;51.514;7.080;2022-11-12T03:28:36;102617.09;;;0.15;100.00
22688;BME280;11511;51.514;7.080;2022-11-12T03:31:20;102617.72;;;0.09;100.00
22688;BME280;11511;51.514;7.080;2022-11-12T03:34:05;102613.03;;;0.21;100.00
22688;BME280;11511;51.514;7.080;2022-11-12T03:36:49;102610.06;;;0.12;100.00
22688;BME280;11511;51.514;7.080;2022-11-12T03:39:34;102612.53;;;0.09;100.00
22688;BME280;11511;51.514;7.080;2022-11-12T03:42:19;102611.97;;;0.16;100.00
22688;BME280;11511;51.514;7.080;2022-11-12T03:45:04;102614.50;;;0.15;100.00
22688;BME280;11511;51.514;7.080;2022-11-12T03:47:51;102613.53;;;0.13;100.00
22688;BME280;11511;51.514;7.080;2022-11-12T03:50:35;102613.72;;;0.17;100.00
22688;BME280;11511;51.514;7.080;2022-11-12T03:53:20;102609.94;;;0.09;100.00
22688;BME280;11511;51.514;7.080;2022-11-12T03:56:04;102604.47;;;0.02;100.00
22688;BME280;11511;51.514;7.080;2022-11-12T03:58:49;102603.81;;;0.07;100.00
22688;BME280;11511;51.514;7.080;2022-11-12T04:01:33;102600.28;;;0.05;100.00
22688;BME280;11511;51.514;7.080;2022-11-12T04:04:18;102597.56;;;0.02;100.00
22688;BME280;11511;51.514;7.080;2022-11-12T04:07:02;102595.94;;;0.04;100.00
22688;BME280;11511;51.514;7.080;2022-11-12T04:13:29;102590.88;;;0.07;100.00
22688;BME280;11511;51.514;7.080;2022-11-12T04:16:16;102588.28;;;0.07;100.00
22688;BME280;11511;51.514;7.080;2022-11-12T04:19:20;102577.69;;;0.01;100.00
22688;BME280;11511;51.514;7.080;2022-11-12T04:22:23;102571.72;;;0.04;100.00
22688;BME280;11511;51.514;7.080;2022-11-12T04:25:08;102569.38;;;0.10;100.00
22688;BME280;11511;51.514;7.080;2022-11-12T04:28:11;102567.63;;;0.09;100.00
22688;BME280;11511;51.514;7.080;2022-11-12T04:30:55;102564.03;;;0.05;100.00
22688;BME280;11511;51.514;7.080;2022-11-12T04:33:39;102569.00;;;-0.01;100.00
22688;BME280;11511;51.514;7.080;2022-11-12T04:36:23;102567.00;;;-0.08;100.00
22688;BME280;11511;51.514;7.080;2022-11-12T04:39:08;102570.59;;;-0.05;100.00
22688;BME280;11511;51.514;7.080;2022-11-12T04:41:52;102567.22;;;-0.02;100.00
22688;BME280;11511;51.514;7.080;2022-11-12T04:44:55;102561.22;;;-0.01;100.00
22688;BME280;11511;51.514;7.080;2022-11-12T04:47:43;102564.84;;;0.04;100.00
22688;BME280;11511;51.514;7.080;2022-11-12T04:50:27;102560.22;;;-0.05;100.00
22688;BME280;11511;51.514;7.080;2022-11-12T04:53:12;102568.75;;;-0.07;100.00
22688;BME280;11511;51.514;7.080;2022-11-12T04:55:57;102569.28;;;-0.16;100.00
22688;BME280;11511;51.514;7.080;2022-11-12T04:58:42;102572.69;;;-0.17;100.00
22688;BME280;11511;51.514;7.080;2022-11-12T05:01:26;102561.81;;;-0.08;100.00
22688;BME280;11511;51.514;7.080;2022-11-12T05:04:10;102566.94;;;-0.10;100.00
22688;BME280;11511;51.514;7.080;2022-11-12T05:06:55;102562.44;;;-0.14;100.00
22688;BME280;11511;51.514;7.080;2022-11-12T05:09:40;102562.50;;;-0.12;100.00
22688;BME280;11511;51.514;7.080;2022-11-12T05:12:24;102558.22;;;-0.12;100.00
22688;BME280;11511;51.514;7.080;2022-11-12T05:15:09;102553.56;;;-0.20;100.00
22688;BME280;11511;51.514;7.080;2022-11-12T05:17:56;102555.50;;;-0.15;100.00
22688;BME280;11511;51.514;7.080;2022-11-12T05:20:40;102547.63;;;-0.18;100.00
22688;BME280;11511;51.514;7.080;2022-11-12T05:23:24;102543.09;;;-0.23;100.00
22688;BME280;11511;51.514;7.080;2022-11-12T05:26:09;102543.25;;;-0.19;100.00
22688;BME280;11511;51.514;7.080;2022-11-12T05:28:53;102544.22;;;-0.17;100.00
22688;BME280;11511;51.514;7.080;2022-11-12T05:31:38;102541.44;;;-0.21;100.00
22688;BME280;11511;51.514;7.080;2022-11-12T05:34:22;102539.78;;;-0.19;100.00
22688;BME280;11511;51.514;7.080;2022-11-12T05:37:08;102532.78;;;-0.22;100.00
22688;BME280;11511;51.514;7.080;2022-11-12T05:39:53;102539.53;;;-0.25;100.00
22688;BME280;11511;51.514;7.080;2022-11-12T05:42:37;102537.84;;;-0.25;100.00
22688;BME280;11511;51.514;7.080;2022-11-12T05:45:21;102532.50;;;-0.29;100.00
22688;BME280;11511;51.514;7.080;2022-11-12T05:48:05;102535.44;;;-0.20;100.00
22688;BME280;11511;51.514;7.080;2022-11-12T05:50:51;102532.44;;;-0.31;100.00
22688;BME280;11511;51.514;7.080;2022-11-12T05:53:35;102534.88;;;-0.36;100.00
22688;BME280;11511;51.514;7.080;2022-11-12T05:56:20;102531.69;;;-0.28;100.00
22688;BME280;11511;51.514;7.080;2022-11-12T05:59:09;102526.34;;;-0.33;100.00
22688;BME280;11511;51.514;7.080;2022-11-12T06:01:53;102523.75;;;-0.33;100.00
22688;BME280;11511;51.514;7.080;2022-11-12T06:04:38;102520.38;;;-0.30;100.00
22688;BME280;11511;51.514;7.080;2022-11-12T06:07:22;102531.69;;;-0.28;100.00
22688;BME280;11511;51.514;7.080;2022-11-12T06:10:07;102526.97;;;-0.39;100.00
22688;BME280;11511;51.514;7.080;2022-11-12T06:12:51;102525.44;;;-0.33;100.00
22688;BME280;11511;51.514;7.080;2022-11-12T06:15:35;102534.75;;;-0.39;100.00
22688;BME280;11511;51.514;7.080;2022-11-12T06:18:20;102539.09;;;-0.38;100.00
22688;BME280;11511;51.514;7.080;2022-11-12T06:21:06;102540.22;;;-0.31;100.00
22688;BME280;11511;51.514;7.080;2022-11-12T06:24:04;102533.34;;;-0.30;100.00
22688;BME280;11511;51.514;7.080;2022-11-12T06:26:49;102542.88;;;-0.29;100.00
22688;BME280;11511;51.514;7.080;2022-11-12T06:29:33;102549.44;;;-0.38;100.00
22688;BME280;11511;51.514;7.080;2022-11-12T06:32:18;102547.94;;;-0.32;100.00
22688;BME280;11511;51.514;7.080;2022-11-12T06:35:02;102560.81;;;-0.34;100.00
22688;BME280;11511;51.514;7.080;2022-11-12T06:37:48;102563.53;;;-0.31;100.00
22688;BME280;11511;51.514;7.080;2022-11-12T06:40:33;102566.69;;;-0.38;100.00
22688;BME280;11511;51.514;7.080;2022-11-12T06:43:18;102566.81;;;-0.35;100.00
22688;BME280;11511;51.514;7.080;2022-11-12T06:46:09;102572.88;;;-0.35;100.00
22688;BME280;11511;51.514;7.080;2022-11-12T06:48:54;102572.94;;;-0.33;100.00
22688;BME280;11511;51.514;7.080;2022-11-12T06:51:39;102573.75;;;-0.34;100.00
22688;BME280;11511;51.514;7.080;2022-11-12T06:54:23;102574.22;;;-0.22;100.00
22688;BME280;11511;51.514;7.080;2022-11-12T06:57:08;102579.22;;;-0.26;100.00
22688;BME280;11511;51.514;7.080;2022-11-12T06:59:52;102581.16;;;-0.21;100.00
22688;BME280;11511;51.514;7.080;2022-11-12T07:02:36;102579.94;;;-0.08;100.00
22688;BME280;11511;51.514;7.080;2022-11-12T07:05:20;102582.41;;;-0.11;100.00
22688;BME280;11511;51.514;7.080;2022-11-12T07:08:05;102588.09;;;0.03;100.00
22688;BME280;11511;51.514;7.080;2022-11-12T07:10:54;102590.22;;;0.13;100.00
22688;BME280;11511;51.514;7.080;2022-11-12T07:13:39;102591.56;;;0.03;100.00
22688;BME280;11511;51.514;7.080;2022-11-12T07:16:23;102592.47;;;0.04;100.00
22688;BME280;11511;51.514;7.080;2022-11-12T07:19:08;102585.56;;;0.04;100.00
22688;BME280;11511;51.514;7.080;2022-11-12T07:21:52;102588.41;;;0.10;100.00
22688;BME280;11511;51.514;7.080;2022-11-12T07:24:37;102585.94;;;0.13;100.00
22688;BME280;11511;51.514;7.080;2022-11-12T07:27:21;102585.03;;;0.13;100.00
22688;BME280;11511;51.514;7.080;2022-11-12T07:30:06;102587.00;;;0.18;100.00
22688;BME280;11511;51.514;7.080;2022-11-12T07:32:50;102587.47;;;0.32;100.00
22688;BME280;11511;51.514;7.080;2022-11-12T07:35:34;102598.97;;;0.39;100.00
22688;BME280;11511;51.514;7.080;2022-11-12T07:38:19;102595.66;;;0.43;100.00
22688;BME280;11511;51.514;7.080;2022-11-12T07:41:15;102596.78;;;0.49;100.00
22688;BME280;11511;51.514;7.080;2022-11-12T07:44:00;102590.34;;;0.63;100.00
22688;BME280;11511;51.514;7.080;2022-11-12T07:46:44;102586.50;;;0.76;100.00
22688;BME280;11511;51.514;7.080;2022-11-12T07:49:28;102594.47;;;1.06;100.00
22688;BME280;11511;51.514;7.080;2022-11-12T07:52:12;102593.25;;;1.49;100.00
22688;BME280;11511;51.514;7.080;2022-11-12T07:54:56;102595.38;;;1.87;100.00
22688;BME280;11511;51.514;7.080;2022-11-12T07:57:40;102590.75;;;1.79;100.00
22688;BME280;11511;51.514;7.080;2022-11-12T08:00:25;102588.66;;;1.95;100.00
22688;BME280;11511;51.514;7.080;2022-11-12T08:03:09;102590.25;;;2.19;100.00
22688;BME280;11511;51.514;7.080;2022-11-12T08:05:53;102594.06;;;2.31;100.00
22688;BME280;11511;51.514;7.080;2022-11-12T08:08:37;102596.38;;;2.52;100.00
22688;BME280;11511;51.514;7.080;2022-11-12T08:11:22;102598.81;;;2.78;100.00
22688;BME280;11511;51.514;7.080;2022-11-12T08:14:06;102600.88;;;3.22;100.00
22688;BME280;11511;51.514;7.080;2022-11-12T08:16:51;102605.09;;;3.52;100.00
22688;BME280;11511;51.514;7.080;2022-11-12T08:19:34;102612.50;;;3.71;100.00
22688;BME280;11511;51.514;7.080;2022-11-12T08:22:19;102614.53;;;3.84;100.00
22688;BME280;11511;51.514;7.080;2022-11-12T08:25:03;102615.19;;;4.13;100.00
22688;BME280;11511;51.514;7.080;2022-11-12T08:27:48;102614.00;;;4.39;100.00
22688;BME280;11511;51.514;7.080;2022-11-12T08:30:32;102608.47;;;4.65;100.00
22688;BME280;11511;51.514;7.080;2022-11-12T08:33:16;102604.41;;;4.81;100.00
22688;BME280;11511;51.514;7.080;2022-11-12T08:36:02;102602.94;;;4.96;100.00
22688;BME280;11511;51.514;7.080;2022-11-12T08:38:47;102593.00;;;5.25;100.00
22688;BME280;11511;51.514;7.080;2022-11-12T08:41:31;102594.00;;;5.33;100.00
22688;BME280;11511;51.514;7.080;2022-11-12T08:44:15;102584.09;;;5.67;100.00
22688;BME280;11511;51.514;7.080;2022-11-12T08:46:59;102580.97;;;5.89;100.00
22688;BME280;11511;51.514;7.080;2022-11-12T08:49:44;102571.69;;;6.13;100.00
22688;BME280;11511;51.514;7.080;2022-11-12T08:52:28;102569.53;;;6.49;100.00
22688;BME280;11511;51.514;7.080;2022-11-12T08:55:12;102577.72;;;6.79;100.00
22688;BME280;11511;51.514;7.080;2022-11-12T08:57:57;102572.50;;;6.79;100.00
22688;BME280;11511;51.514;7.080;2022-11-12T09:00:45;102575.28;;;6.98;100.00
22688;BME280;11511;51.514;7.080;2022-11-12T09:03:29;102571.78;;;6.97;100.00
22688;BME280;11511;51.514;7.080;2022-11-12T09:06:14;102579.78;;;7.11;100.00
22688;BME280;11511;51.514;7.080;2022-11-12T09:08:58;102576.41;;;7.26;100.00
22688;BME280;11511;51.514;7.080;2022-11-12T09:11:43;102584.53;;;7.58;100.00
22688;BME280;11511;51.514;7.080;2022-11-12T09:14:27;102584.66;;;7.77;100.00
22688;BME280;11511;51.514;7.080;2022-11-12T09:17:11;102580.47;;;8.07;100.00
22688;BME280;11511;51.514;7.080;2022-11-12T09:19:56;102567.44;;;8.31;100.00
22688;BME280;11511;51.514;7.080;2022-11-12T09:22:40;102581.56;;;8.53;100.00
22688;BME280;11511;51.514;7.080;2022-11-12T09:25:24;102576.34;;;8.62;100.00
22688;BME280;11511;51.514;7.080;2022-11-12T09:28:11;102586.00;;;8.74;100.00
22688;BME280;11511;51.514;7.080;2022-11-12T09:30:56;102582.53;;;8.89;100.00
22688;BME280;11511;51.514;7.080;2022-11-12T09:33:40;102576.41;;;9.09;100.00
22688;BME280;11511;51.514;7.080;2022-11-12T09:36:24;102579.06;;;9.19;100.00
22688;BME280;11511;51.514;7.080;2022-11-12T09:39:09;102577.22;;;9.88;100.00
22688;BME280;11511;51.514;7.080;2022-11-12T09:41:55;102586.81;;;10.30;100.00
22688;BME280;11511;51.514;7.080;2022-11-12T09:44:42;102577.94;;;10.47;100.00
22688;BME280;11511;51.514;7.080;2022-11-12T09:47:43;102592.50;;;11.12;100.00
22688;BME280;11511;51.514;7.080;2022-11-12T09:50:32;102587.88;;;11.39;100.00
22688;BME280;11511;51.514;7.080;2022-11-12T09:53:24;102584.34;;;12.30;100.00
22688;BME280;11511;51.514;7.080;2022-11-12T09:56:12;102586.88;;;15.26;100.00
22688;BME280;11511;51.514;7.080;2022-11-12T09:58:56;102583.22;;;19.10;100.00
22688;BME280;11511;51.514;7.080;2022-11-12T10:05:08;102592.16;;;21.26;83.48
22688;BME280;11511;51.514;7.080;2022-11-12T10:08:19;102597.66;;;22.91;57.70
22688;BME280;11511;51.514;7.080;2022-11-12T10:11:30;102598.34;;;24.14;49.33
22688;BME280;11511;51.514;7.080;2022-11-12T10:14:54;102607.16;;;20.92;53.88
22688;BME280;11511;51.514;7.080;2022-11-12T10:18:20;102601.06;;;23.40;47.48
22688;BME280;11511;51.514;7.080;2022-11-12T10:21:33;102604.97;;;24.80;42.61
22688;BME280;11511;51.514;7.080;2022-11-12T10:24:20;102592.31;;;25.48;39.93
22688;BME280;11511;51.514;7.080;2022-11-12T10:27:27;102597.16;;;25.95;38.56
22688;BME280;11511;51.514;7.080;2022-11-12T10:30:18;102592.81;;;26.06;37.56
22688;BME280;11511;51.514;7.080;2022-11-12T10:33:03;102587.88;;;26.25;36.97
22688;BME280;11511;51.514;7.080;2022-11-12T10:35:47;102590.59;;;25.20;38.72
22688;BME280;11511;51.514;7.080;2022-11-12T10:38:33;102587.09;;;25.85;37.61
22688;BME280;11511;51.514;7.080;2022-11-12T10:41:23;102582.13;;;25.79;37.61
22688;BME280;11511;51.514;7.080;2022-11-12T10:44:13;102587.88;;;25.08;37.49
22688;BME280;11511;51.514;7.080;2022-11-12T10:53:07;102567.16;;;25.48;37.84
22688;BME280;11511;51.514;7.080;2022-11-12T10:55:59;102572.97;;;24.47;38.19
22688;BME280;11511;51.514;7.080;2022-11-12T10:58:43;102561.63;;;23.55;40.61
22688;BME280;11511;51.514;7.080;2022-11-12T11:01:30;102556.81;;;23.30;42.35
22688;BME280;11511;51.514;7.080;2022-11-12T11:04:37;102555.09;;;23.29;42.75
22688;BME280;11511;51.514;7.080;2022-11-12T11:07:23;102562.88;;;23.04;42.79
22688;BME280;11511;51.514;7.080;2022-11-12T11:16:06;102546.84;;;22.86;41.71
22688;BME280;11511;51.514;7.080;2022-11-12T11:19:01;102544.72;;;22.13;43.07
22688;BME280;11511;51.514;7.080;2022-11-12T11:24:56;102526.94;;;20.72;46.07
22688;BME280;11511;51.514;7.080;2022-11-12T11:31:07;102527.66;;;20.57;46.60
22688;BME280;11511;51.514;7.080;2022-11-12T11:37:00;102525.16;;;21.26;45.49
22688;BME280;11511;51.514;7.080;2022-11-12T11:40:00;102521.09;;;21.17;45.85
22688;BME280;11511;51.514;7.080;2022-11-12T11:43:17;102521.50;;;21.61;45.90
22688;BME280;11511;51.514;7.080;2022-11-12T11:58:35;102507.69;;;22.67;42.70
22688;BME280;11511;51.514;7.080;2022-11-12T12:04:44;102503.94;;;21.56;43.47
22688;BME280;11511;51.514;7.080;2022-11-12T12:10:24;102499.06;;;21.30;44.16
22688;BME280;11511;51.514;7.080;2022-11-12T12:13:20;102504.88;;;21.55;45.05
22688;BME280;11511;51.514;7.080;2022-11-12T12:19:36;102500.06;;;21.44;44.87
22688;BME280;11511;51.514;7.080;2022-11-12T12:22:37;102501.00;;;22.26;43.50
22688;BME280;11511;51.514;7.080;2022-11-12T12:25:31;102490.88;;;21.83;43.65
22688;BME280;11511;51.514;7.080;2022-11-12T12:28:39;102493.28;;;21.54;44.18
22688;BME280;11511;51.514;7.080;2022-11-12T12:31:28;102489.16;;;21.13;44.63
22688;BME280;11511;51.514;7.080;2022-11-12T12:34:34;102489.66;;;21.04;45.02
22688;BME280;11511;51.514;7.080;2022-11-12T12:37:40;102479.81;;;21.56;44.56
22688;BME280;11511;51.514;7.080;2022-11-12T12:40:50;102482.38;;;22.23;43.65
22688;BME280;11511;51.514;7.080;2022-11-12T12:43:49;102476.84;;;22.58;43.21
22688;BME280;11511;51.514;7.080;2022-11-12T12:46:45;102469.72;;;21.77;43.76
22688;BME280;11511;51.514;7.080;2022-11-12T12:49:35;102466.03;;;21.95;43.99
22688;BME280;11511;51.514;7.080;2022-11-12T12:52:20;102470.09;;;22.35;43.69
22688;BME280;11511;51.514;7.080;2022-11-12T12:55:04;102470.41;;;22.45;43.59
22688;BME280;11511;51.514;7.080;2022-11-12T12:57:57;102470.25;;;22.48;42.44
22688;BME280;11511;51.514;7.080;2022-11-12T13:00:48;102467.41;;;21.19;44.38
22688;BME280;11511;51.514;7.080;2022-11-12T13:09:28;102463.31;;;20.02;46.69
22688;BME280;11511;51.514;7.080;2022-11-12T13:12:15;102456.66;;;20.29;46.65
22688;BME280;11511;51.514;7.080;2022-11-12T13:15:14;102458.97;;;20.92;46.10
22688;BME280;11511;51.514;7.080;2022-11-12T13:17:59;102454.19;;;19.48;48.13
22688;BME280;11511;51.514;7.080;2022-11-12T13:21:09;102467.31;;;20.12;47.44
22688;BME280;11511;51.514;7.080;2022-11-12T13:24:00;102457.41;;;20.52;46.64
22688;BME280;11511;51.514;7.080;2022-11-12T13:26:55;102457.09;;;20.58;46.21
22688;BME280;11511;51.514;7.080;2022-11-12T13:29:41;102465.34;;;21.07;45.69
22688;BME280;11511;51.514;7.080;2022-11-12T13:32:33;102455.91;;;21.34;46.55
22688;BME280;11511;51.514;7.080;2022-11-12T13:35:30;102456.16;;;20.59;46.88
22688;BME280;11511;51.514;7.080;2022-11-12T13:38:17;102454.88;;;21.19;45.58
22688;BME280;11511;51.514;7.080;2022-11-12T13:41:07;102446.84;;;21.54;46.90
22688;BME280;11511;51.514;7.080;2022-11-12T13:43:55;102449.53;;;20.49;46.98
22688;BME280;11511;51.514;7.080;2022-11-12T13:46:40;102456.53;;;20.33;47.75
22688;BME280;11511;51.514;7.080;2022-11-12T13:49:25;102452.22;;;19.53;49.01
22688;BME280;11511;51.514;7.080;2022-11-12T13:52:13;102441.81;;;19.46;50.37
22688;BME280;11511;51.514;7.080;2022-11-12T13:55:04;102446.63;;;18.97;51.45
22688;BME280;11511;51.514;7.080;2022-11-12T13:57:52;102441.81;;;18.19;54.44
22688;BME280;11511;51.514;7.080;2022-11-12T14:00:37;102441.06;;;17.69;56.05
22688;BME280;11511;51.514;7.080;2022-11-12T14:03:23;102444.72;;;17.42;58.04
22688;BME280;11511;51.514;7.080;2022-11-12T14:06:20;102442.97;;;17.66;58.28
22688;BME280;11511;51.514;7.080;2022-11-12T14:09:30;102435.09;;;17.13;61.48
22688;BME280;11511;51.514;7.080;2022-11-12T14:21:17;102425.97;;;17.45;63.99
22688;BME280;11511;51.514;7.080;2022-11-12T14:24:03;102421.66;;;17.16;65.61
22688;BME280;11511;51.514;7.080;2022-11-12T14:26:48;102418.19;;;16.89;67.31
22688;BME280;11511;51.514;7.080;2022-11-12T14:29:32;102418.91;;;16.94;69.38
22688;BME280;11511;51.514;7.080;2022-11-12T14:32:17;102419.88;;;16.37;72.69
22688;BME280;11511;51.514;7.080;2022-11-12T14:35:16;102423.41;;;15.80;75.96
22688;BME280;11511;51.514;7.080;2022-11-12T14:40:56;102407.25;;;15.24;81.15
22688;BME280;11511;51.514;7.080;2022-11-12T14:43:47;102410.34;;;15.08;82.88
22688;BME280;11511;51.514;7.080;2022-11-12T14:46:38;102414.41;;;14.88;85.33
22688;BME280;11511;51.514;7.080;2022-11-12T14:49:34;102415.78;;;14.69;88.15
22688;BME280;11511;51.514;7.080;2022-11-12T14:52:22;102413.31;;;14.62;89.23
22688;BME280;11511;51.514;7.080;2022-11-12T14:55:15;102407.25;;;14.56;90.58
22688;BME280;11511;51.514;7.080;2022-11-12T14:58:00;102408.47;;;14.43;92.75
22688;BME280;11511;51.514;7.080;2022-11-12T15:00:47;102403.41;;;14.31;94.73
22688;BME280;11511;51.514;7.080;2022-11-12T15:03:32;102402.19;;;14.07;97.51
22688;BME280;11511;51.514;7.080;2022-11-12T15:06:27;102389.38;;;13.89;100.00
22688;BME280;11511;51.514;7.080;2022-11-12T15:09:13;102386.09;;;13.76;100.00
22688;BME280;11511;51.514;7.080;2022-11-12T15:12:08;102391.84;;;13.55;100.00
22688;BME280;11511;51.514;7.080;2022-11-12T15:15:28;102394.00;;;13.38;100.00
22688;BME280;11511;51.514;7.080;2022-11-12T15:26:45;102391.66;;;12.70;100.00
22688;BME280;11511;51.514;7.080;2022-11-12T15:29:32;102383.38;;;12.38;100.00
22688;BME280;11511;51.514;7.080;2022-11-12T15:35:01;102382.09;;;12.06;100.00
22688;BME280;11511;51.514;7.080;2022-11-12T15:37:46;102385.91;;;11.85;100.00
22688;BME280;11511;51.514;7.080;2022-11-12T15:40:31;102379.94;;;11.70;100.00
22688;BME280;11511;51.514;7.080;2022-11-12T15:43:19;102377.50;;;11.54;100.00
22688;BME280;11511;51.514;7.080;2022-11-12T15:46:11;102377.81;;;11.27;100.00
22688;BME280;11511;51.514;7.080;2022-11-12T15:48:57;102370.97;;;11.11;100.00
22688;BME280;11511;51.514;7.080;2022-11-12T15:51:42;102379.91;;;10.96;100.00
22688;BME280;11511;51.514;7.080;2022-11-12T15:54:26;102373.88;;;10.85;100.00